Time;durP1;ratioP1;P1;durP2;ratioP2;P2;SDS_P1;SDS_P2;PMS_P1;PMS_P2;Temp;Humidity;BMP_temperature;BMP_pressure;BME280_temperature;BME280_humidity;BME280_pressure;Samples;Min_cycle;Max_cycle;Signal;HPM_P1;HPM_P2
2024/03/24 00:01:13;;;;;;;10.70;5.20;;;;;;;;;;103649;1290;544944;-71
2024/03/24 00:04:49;;;;;;;9.90;4.50;;;;;;;;;;103672;1292;545190;-71
2024/03/24 00:08:27;;;;;;;9.50;3.60;;;;;;;;;;103775;1290;545108;-70
2024/03/24 00:12:10;;;;;;;10.90;4.60;;;;;;;;;;103679;1289;547306;-72
2024/03/24 00:15:42;;;;;;;11.50;5.00;;;;;;;;;;103684;1289;545584;-70
2024/03/24 00:19:19;;;;;;;9.60;4.00;;;;;;;;;;103820;1293;544758;-71
2024/03/24 00:22:59;;;;;;;10.50;4.60;;;;;;;;;;103594;1289;545382;-71
2024/03/24 00:26:34;;;;;;;10.00;4.00;;;;;;;;;;103450;1292;545102;-71
2024/03/24 00:30:11;;;;;;;8.60;4.00;;;;;;;;;;103674;1289;545053;-71
2024/03/24 00:33:49;;;;;;;10.30;4.10;;;;;;;;;;103735;1290;545646;-70
2024/03/24 00:37:27;;;;;;;9.90;4.00;;;;;;;;;;103674;1290;545283;-70
2024/03/24 00:41:04;;;;;;;7.60;3.60;;;;;;;;;;103622;1292;544759;-70
2024/03/24 00:44:41;;;;;;;10.50;4.10;;;;;;;;;;103812;1289;544735;-70
2024/03/24 00:48:19;;;;;;;12.70;4.90;;;;;;;;;;104446;1286;544950;-70
2024/03/24 00:52:05;;;;;;;9.00;4.10;;;;;;;;;;103594;1289;545606;-70
2024/03/24 00:55:34;;;;;;;10.50;4.30;;;;;;;;;;103857;1288;544961;-71
2024/03/24 00:59:07;;;;;;;9.80;4.50;;;;;;;;;;104090;1287;544827;-71
2024/03/24 01:02:49;;;;;;;8.30;3.80;;;;;;;;;;103617;1296;544789;-70
2024/03/24 01:06:32;;;;;;;8.30;3.40;;;;;;;;;;103613;1292;547962;-70
2024/03/24 01:10:07;;;;;;;8.30;3.30;;;;;;;;;;103796;1290;544902;-70
2024/03/24 01:13:41;;;;;;;10.70;4.10;;;;;;;;;;103667;1292;544787;-71
2024/03/24 01:17:19;;;;;;;8.30;4.10;;;;;;;;;;103688;1289;544998;-71
2024/03/24 01:20:56;;;;;;;11.10;5.30;;;;;;;;;;103825;1290;545064;-68
2024/03/24 01:24:33;;;;;;;14.90;8.00;;;;;;;;;;103392;1305;545021;-70
2024/03/24 01:28:11;;;;;;;14.30;7.60;;;;;;;;;;103791;1289;544859;-70
2024/03/24 01:31:49;;;;;;;12.20;6.70;;;;;;;;;;103669;1293;544929;-70
2024/03/24 01:35:26;;;;;;;12.90;6.00;;;;;;;;;;103644;1289;545157;-70
2024/03/24 01:39:04;;;;;;;13.00;6.30;;;;;;;;;;104485;1283;544997;-70
2024/03/24 01:42:41;;;;;;;13.40;6.30;;;;;;;;;;103610;1295;544864;-71
2024/03/24 01:46:19;;;;;;;11.40;5.90;;;;;;;;;;103421;1298;546029;-70
2024/03/24 01:49:56;;;;;;;11.90;4.80;;;;;;;;;;104520;1283;544780;-70
2024/03/24 01:53:33;;;;;;;10.10;4.10;;;;;;;;;;103712;1288;544807;-71
2024/03/24 01:57:11;;;;;;;9.50;4.30;;;;;;;;;;103689;1290;545058;-70
2024/03/24 02:00:48;;;;;;;11.30;4.80;;;;;;;;;;103739;1289;544874;-68
2024/03/24 02:04:26;;;;;;;10.30;4.70;;;;;;;;;;103778;1292;545573;-69
2024/03/24 02:08:09;;;;;;;10.80;4.80;;;;;;;;;;103673;1289;547942;-70
2024/03/24 02:11:41;;;;;;;12.40;5.10;;;;;;;;;;103612;1292;544802;-70
2024/03/24 02:15:18;;;;;;;11.00;4.40;;;;;;;;;;103654;1290;545890;-70
2024/03/24 02:18:59;;;;;;;8.40;3.70;;;;;;;;;;103545;1290;545848;-70
2024/03/24 02:22:37;;;;;;;8.40;3.60;;;;;;;;;;103639;1292;545147;-71
2024/03/24 02:26:11;;;;;;;8.20;3.50;;;;;;;;;;103563;1292;544767;-69
2024/03/24 02:29:48;;;;;;;9.80;3.20;;;;;;;;;;103947;1288;545279;-69
2024/03/24 02:33:25;;;;;;;8.90;3.10;;;;;;;;;;103755;1289;544782;-69
2024/03/24 02:37:03;;;;;;;7.40;2.80;;;;;;;;;;103943;1289;545209;-70
2024/03/24 02:40:38;;;;;;;8.80;3.00;;;;;;;;;;103672;1292;545992;-69
2024/03/24 02:44:20;;;;;;;8.20;3.10;;;;;;;;;;103642;1301;544844;-70
2024/03/24 02:47:55;;;;;;;7.90;3.30;;;;;;;;;;103621;1292;545141;-71
2024/03/24 02:51:33;;;;;;;7.90;3.40;;;;;;;;;;103702;1292;544901;-70
2024/03/24 02:55:11;;;;;;;7.80;2.90;;;;;;;;;;103620;1293;544825;-70
2024/03/24 02:58:48;;;;;;;10.30;4.00;;;;;;;;;;103805;1289;545486;-70
2024/03/24 03:02:26;;;;;;;12.90;5.80;;;;;;;;;;103636;1289;545464;-71
2024/03/24 03:06:03;;;;;;;11.70;6.20;;;;;;;;;;103719;1302;545424;-70
2024/03/24 03:09:43;;;;;;;10.90;5.70;;;;;;;;;;103620;1292;545121;-70
2024/03/24 03:13:19;;;;;;;11.00;5.60;;;;;;;;;;103476;1292;545754;-71
2024/03/24 03:16:56;;;;;;;9.80;4.00;;;;;;;;;;103658;1291;544995;-69
2024/03/24 03:20:34;;;;;;;8.40;3.50;;;;;;;;;;103560;1291;544795;-70
2024/03/24 03:24:10;;;;;;;8.20;3.80;;;;;;;;;;103659;1291;545696;-70
2024/03/24 03:27:48;;;;;;;8.20;3.90;;;;;;;;;;103570;1292;544941;-71
2024/03/24 03:31:25;;;;;;;7.20;3.50;;;;;;;;;;103732;1289;545002;-71
2024/03/24 03:35:04;;;;;;;8.20;3.60;;;;;;;;;;103533;1292;545440;-70
2024/03/24 03:38:40;;;;;;;13.50;5.90;;;;;;;;;;103687;1289;544933;-71
2024/03/24 03:42:19;;;;;;;14.60;7.20;;;;;;;;;;103719;1292;544776;-70
2024/03/24 03:45:55;;;;;;;14.20;7.20;;;;;;;;;;103764;1292;545607;-70
2024/03/24 03:49:33;;;;;;;13.50;7.20;;;;;;;;;;103622;1289;545810;-70
2024/03/24 03:53:17;;;;;;;10.40;4.70;;;;;;;;;;103547;1293;545339;-70
2024/03/24 03:56:48;;;;;;;8.70;3.70;;;;;;;;;;103689;1292;545117;-71
2024/03/24 04:00:25;;;;;;;9.00;3.60;;;;;;;;;;103703;1291;544805;-70
2024/03/24 04:04:03;;;;;;;8.20;4.00;;;;;;;;;;103679;1292;545639;-70
2024/03/24 04:07:41;;;;;;;8.90;4.20;;;;;;;;;;103724;1292;545591;-70
2024/03/24 04:11:17;;;;;;;10.40;4.60;;;;;;;;;;103562;1289;544708;-70
2024/03/24 04:14:55;;;;;;;10.50;4.70;;;;;;;;;;103345;1292;544868;-71
2024/03/24 04:18:33;;;;;;;9.50;4.40;;;;;;;;;;103505;1293;544972;-70
2024/03/24 04:22:10;;;;;;;9.30;4.20;;;;;;;;;;103648;1292;545628;-70
2024/03/24 04:25:48;;;;;;;8.40;4.10;;;;;;;;;;103684;1292;544981;-70
2024/03/24 04:29:25;;;;;;;9.30;4.10;;;;;;;;;;103532;1295;545105;-70
2024/03/24 04:33:02;;;;;;;8.90;4.30;;;;;;;;;;103739;1293;544859;-71
2024/03/24 04:36:40;;;;;;;9.30;4.10;;;;;;;;;;103738;1294;545328;-70
2024/03/24 04:40:18;;;;;;;9.90;4.60;;;;;;;;;;103792;1289;544789;-71
2024/03/24 04:43:55;;;;;;;10.30;5.20;;;;;;;;;;103706;1289;544749;-70
2024/03/24 04:47:32;;;;;;;11.40;5.30;;;;;;;;;;103697;1292;545543;-71
2024/03/24 04:51:10;;;;;;;8.90;4.40;;;;;;;;;;104366;1289;545922;-70
2024/03/24 04:54:47;;;;;;;11.00;4.70;;;;;;;;;;103621;1293;544844;-70
2024/03/24 04:58:25;;;;;;;9.50;3.90;;;;;;;;;;103367;1295;545049;-70
2024/03/24 05:02:09;;;;;;;9.80;3.60;;;;;;;;;;103525;1292;544982;-70
2024/03/24 05:05:45;;;;;;;8.30;3.80;;;;;;;;;;103669;1292;545602;-71
2024/03/24 05:09:20;;;;;;;7.20;3.70;;;;;;;;;;103648;1292;544988;-71
2024/03/24 05:12:56;;;;;;;8.30;3.20;;;;;;;;;;103481;1293;544969;-71
2024/03/24 05:16:33;;;;;;;8.30;3.70;;;;;;;;;;103672;1292;544911;-71
2024/03/24 05:20:10;;;;;;;8.10;3.50;;;;;;;;;;103918;1286;544767;-71
2024/03/24 05:23:48;;;;;;;11.80;4.50;;;;;;;;;;103810;1289;545745;-70
2024/03/24 05:27:25;;;;;;;9.00;3.70;;;;;;;;;;103832;1289;544956;-71
2024/03/24 05:31:02;;;;;;;8.20;3.30;;;;;;;;;;103705;1290;545862;-71
2024/03/24 05:34:43;;;;;;;8.20;3.60;;;;;;;;;;103773;1292;544891;-69
2024/03/24 05:38:17;;;;;;;8.00;3.20;;;;;;;;;;104080;1285;544974;-70
2024/03/24 05:41:54;;;;;;;6.60;3.00;;;;;;;;;;103786;1289;545056;-70
2024/03/24 05:45:56;;;;;;;7.90;3.10;;;;;;;;;;103699;1289;545217;-70
2024/03/24 05:49:10;;;;;;;7.60;2.90;;;;;;;;;;103701;1290;544724;-70
2024/03/24 05:52:48;;;;;;;6.00;3.00;;;;;;;;;;103671;1290;545458;-70
2024/03/24 05:56:25;;;;;;;6.90;3.30;;;;;;;;;;103706;1292;545536;-69
2024/03/24 06:00:04;;;;;;;8.40;3.30;;;;;;;;;;104025;1287;545454;-70
2024/03/24 06:03:40;;;;;;;7.70;3.10;;;;;;;;;;103692;1291;544858;-72
2024/03/24 06:07:18;;;;;;;6.70;2.80;;;;;;;;;;103560;1292;545534;-69
2024/03/24 06:10:54;;;;;;;8.40;2.60;;;;;;;;;;103695;1292;545028;-71
2024/03/24 06:14:32;;;;;;;6.60;2.60;;;;;;;;;;103903;1294;544967;-71
2024/03/24 06:18:12;;;;;;;5.60;2.60;;;;;;;;;;103497;1298;545459;-71
2024/03/24 06:21:47;;;;;;;7.40;2.90;;;;;;;;;;103558;1295;544737;-70
2024/03/24 06:25:25;;;;;;;7.00;2.80;;;;;;;;;;103749;1289;544804;-72
2024/03/24 06:29:02;;;;;;;6.90;2.50;;;;;;;;;;103532;1293;546649;-71
2024/03/24 06:32:39;;;;;;;5.60;2.20;;;;;;;;;;103650;1289;544936;-71
2024/03/24 06:36:17;;;;;;;7.40;2.50;;;;;;;;;;103488;1295;544830;-71
2024/03/24 06:39:55;;;;;;;6.20;2.60;;;;;;;;;;103869;1292;545368;-71
2024/03/24 06:43:41;;;;;;;7.90;3.10;;;;;;;;;;103447;1292;544722;-71
2024/03/24 06:47:09;;;;;;;7.40;3.00;;;;;;;;;;104725;1283;544876;-70
2024/03/24 06:50:50;;;;;;;8.90;3.40;;;;;;;;;;103666;1292;545261;-71
2024/03/24 06:54:25;;;;;;;6.70;3.20;;;;;;;;;;103867;1291;545969;-71
2024/03/24 06:58:03;;;;;;;8.30;3.60;;;;;;;;;;103749;1293;546339;-70
2024/03/24 07:01:55;;;;;;;10.20;4.90;;;;;;;;;;103741;1292;547895;-72
2024/03/24 07:05:18;;;;;;;7.80;2.90;;;;;;;;;;103857;1290;545244;-71
2024/03/24 07:08:58;;;;;;;7.20;2.50;;;;;;;;;;103903;1289;544767;-71
2024/03/24 07:12:34;;;;;;;7.40;2.80;;;;;;;;;;103717;1292;545909;-69
2024/03/24 07:16:10;;;;;;;6.40;2.30;;;;;;;;;;103784;1289;545953;-71
2024/03/24 07:19:50;;;;;;;7.50;3.00;;;;;;;;;;103628;1292;544997;-71
2024/03/24 07:24:15;;;;;;;;;;;;;;;;;;;;;
2024/03/24 07:27:03;;;;;;;5.60;2.30;;;;;;;;;;103994;1288;544937;-70
2024/03/24 07:30:40;;;;;;;6.60;2.30;;;;;;;;;;103689;1292;545088;-71
2024/03/24 07:34:17;;;;;;;6.90;2.40;;;;;;;;;;103531;1292;546244;-69
2024/03/24 07:37:51;;;;;;;6.90;2.80;;;;;;;;;;103551;1289;544847;-69
2024/03/24 07:41:29;;;;;;;5.00;2.10;;;;;;;;;;103533;1290;546240;-69
2024/03/24 07:45:10;;;;;;;7.80;2.20;;;;;;;;;;103637;1292;544968;-70
2024/03/24 07:48:48;;;;;;;5.30;2.00;;;;;;;;;;103850;1289;545245;-71
2024/03/24 07:52:26;;;;;;;5.00;2.10;;;;;;;;;;103826;1289;544890;-71
2024/03/24 07:56:04;;;;;;;6.00;2.40;;;;;;;;;;103852;1295;546351;-70
2024/03/24 07:59:40;;;;;;;5.90;2.10;;;;;;;;;;104025;1290;544955;-72
2024/03/24 08:03:14;;;;;;;5.70;2.10;;;;;;;;;;103942;1296;544978;-72
2024/03/24 08:06:55;;;;;;;5.60;2.40;;;;;;;;;;104127;1285;544976;-71
2024/03/24 08:10:35;;;;;;;5.70;2.40;;;;;;;;;;103454;1292;544710;-72
2024/03/24 08:14:06;;;;;;;6.50;2.70;;;;;;;;;;103857;1289;545090;-71
2024/03/24 08:17:50;;;;;;;5.30;1.90;;;;;;;;;;103819;1295;545302;-71
2024/03/24 08:21:25;;;;;;;5.20;1.90;;;;;;;;;;103616;1292;545161;-70
2024/03/24 08:25:05;;;;;;;6.60;2.20;;;;;;;;;;103780;1289;544995;-71
2024/03/24 08:28:39;;;;;;;5.90;2.20;;;;;;;;;;103781;1289;545704;-72
2024/03/24 08:32:19;;;;;;;5.40;2.10;;;;;;;;;;103767;1292;546396;-72
2024/03/24 08:35:51;;;;;;;4.30;2.00;;;;;;;;;;103816;1295;546646;-69
2024/03/24 08:39:32;;;;;;;9.30;2.90;;;;;;;;;;103868;1292;544944;-70
2024/03/24 08:43:10;;;;;;;8.10;2.80;;;;;;;;;;103749;1289;544910;-72
2024/03/24 08:46:46;;;;;;;6.90;2.90;;;;;;;;;;103743;1292;544756;-72
2024/03/24 08:50:25;;;;;;;8.00;2.80;;;;;;;;;;103807;1289;544785;-72
2024/03/24 08:53:58;;;;;;;4.90;2.00;;;;;;;;;;103766;1289;544736;-70
2024/03/24 08:57:41;;;;;;;5.90;2.20;;;;;;;;;;104041;1285;545869;-71
2024/03/24 09:01:16;;;;;;;6.30;2.40;;;;;;;;;;103805;1296;545182;-70
2024/03/24 09:04:57;;;;;;;6.40;2.50;;;;;;;;;;103574;1295;545041;-72
2024/03/24 09:08:34;;;;;;;7.20;3.10;;;;;;;;;;103890;1289;545068;-70
2024/03/24 09:12:09;;;;;;;6.70;3.20;;;;;;;;;;103710;1289;545680;-70
2024/03/24 09:15:47;;;;;;;6.80;3.00;;;;;;;;;;103714;1289;546431;-72
2024/03/24 09:19:23;;;;;;;6.10;2.80;;;;;;;;;;103844;1295;544947;-72
2024/03/24 09:23:08;;;;;;;7.30;3.50;;;;;;;;;;103617;1292;548172;-72
2024/03/24 09:26:39;;;;;;;6.70;2.90;;;;;;;;;;104004;1288;546010;-73
2024/03/24 09:30:23;;;;;;;6.30;2.70;;;;;;;;;;103637;1290;547983;-71
2024/03/24 09:33:55;;;;;;;5.70;2.40;;;;;;;;;;103564;1291;544844;-71
2024/03/24 09:37:33;;;;;;;5.50;2.40;;;;;;;;;;103738;1291;545712;-70
2024/03/24 09:41:09;;;;;;;8.10;4.00;;;;;;;;;;103797;1291;546403;-71
2024/03/24 09:44:43;;;;;;;9.00;6.20;;;;;;;;;;103806;1295;545924;-72
2024/03/24 09:48:20;;;;;;;7.60;3.60;;;;;;;;;;104520;1283;544978;-71
2024/03/24 09:52:00;;;;;;;7.00;3.00;;;;;;;;;;103739;1291;544770;-70
2024/03/24 09:55:43;;;;;;;7.20;3.10;;;;;;;;;;103887;1287;544786;-70
2024/03/24 09:59:18;;;;;;;8.50;4.40;;;;;;;;;;103623;1292;544944;-71
2024/03/24 10:03:04;;;;;;;6.80;3.20;;;;;;;;;;103649;1293;545637;-71
2024/03/24 10:06:32;;;;;;;6.80;2.80;;;;;;;;;;103627;1292;545350;-71
2024/03/24 10:10:10;;;;;;;5.80;2.40;;;;;;;;;;103638;1292;544854;-71
2024/03/24 10:13:50;;;;;;;5.70;2.30;;;;;;;;;;103810;1289;546516;-71
2024/03/24 10:17:24;;;;;;;5.90;2.30;;;;;;;;;;103611;1291;544910;-72
2024/03/24 10:21:02;;;;;;;6.50;2.00;;;;;;;;;;103683;1294;545054;-71
2024/03/24 10:25:02;;;;;;;7.50;3.10;;;;;;;;;;103826;1289;544976;-71
2024/03/24 10:28:13;;;;;;;6.80;2.10;;;;;;;;;;104768;1286;545045;-72
2024/03/24 10:31:55;;;;;;;4.90;2.10;;;;;;;;;;103645;1292;545420;-71
2024/03/24 10:35:31;;;;;;;5.50;1.90;;;;;;;;;;103683;1292;545413;-71
2024/03/24 10:39:09;;;;;;;7.30;2.80;;;;;;;;;;103702;1292;544999;-69
2024/03/24 10:42:47;;;;;;;5.40;2.00;;;;;;;;;;103822;1301;544787;-71
2024/03/24 10:46:31;;;;;;;5.00;2.10;;;;;;;;;;103676;1289;548002;-71
2024/03/24 10:50:02;;;;;;;7.90;2.50;;;;;;;;;;103809;1289;544981;-70
2024/03/24 10:53:49;;;;;;;6.70;2.50;;;;;;;;;;103814;1289;544970;-71
2024/03/24 10:57:17;;;;;;;6.30;2.10;;;;;;;;;;103901;1289;545408;-71
2024/03/24 11:00:57;;;;;;;6.60;2.70;;;;;;;;;;103762;1289;545574;-72
2024/03/24 11:04:32;;;;;;;5.40;2.40;;;;;;;;;;103688;1292;545927;-71
2024/03/24 11:08:13;;;;;;;5.00;2.00;;;;;;;;;;103661;1292;544789;-72
2024/03/24 11:11:46;;;;;;;4.60;1.50;;;;;;;;;;104105;1289;544915;-71
2024/03/24 11:15:24;;;;;;;5.70;2.10;;;;;;;;;;103827;1289;545151;-70
2024/03/24 11:19:08;;;;;;;6.00;1.90;;;;;;;;;;103810;1291;546128;-72
2024/03/24 11:22:43;;;;;;;6.80;2.80;;;;;;;;;;103651;1293;545056;-71
2024/03/24 11:26:24;;;;;;;6.90;2.70;;;;;;;;;;103916;1292;544793;-68
2024/03/24 11:29:58;;;;;;;7.00;2.90;;;;;;;;;;104297;1289;545277;-70
2024/03/24 11:33:37;;;;;;;7.00;2.90;;;;;;;;;;103633;1293;549227;-71
2024/03/24 11:37:09;;;;;;;5.30;2.10;;;;;;;;;;104378;1282;544764;-71
2024/03/24 11:40:49;;;;;;;6.90;2.50;;;;;;;;;;103724;1292;544882;-71
2024/03/24 11:44:25;;;;;;;5.20;2.10;;;;;;;;;;104291;1282;544838;-71
2024/03/24 11:48:17;;;;;;;5.60;1.90;;;;;;;;;;104118;1288;545587;-73
2024/03/24 11:51:38;;;;;;;8.70;2.80;;;;;;;;;;103836;1289;545770;-71
2024/03/24 11:55:17;;;;;;;6.10;2.30;;;;;;;;;;103758;1296;544891;-70
2024/03/24 11:58:54;;;;;;;8.00;2.40;;;;;;;;;;104162;1285;545044;-71
2024/03/24 12:02:32;;;;;;;6.40;2.80;;;;;;;;;;104194;1285;545702;-70
2024/03/24 12:06:13;;;;;;;6.50;2.50;;;;;;;;;;103980;1289;544880;-68
2024/03/24 12:10:09;;;;;;;6.30;1.70;;;;;;;;;;104084;1292;546328;-71
2024/03/24 12:13:24;;;;;;;5.60;2.10;;;;;;;;;;103726;1292;545053;-70
2024/03/24 12:17:03;;;;;;;4.90;1.60;;;;;;;;;;103554;1292;545239;-70
2024/03/24 12:20:39;;;;;;;6.40;2.10;;;;;;;;;;103931;1285;544751;-72
2024/03/24 12:24:22;;;;;;;5.70;2.30;;;;;;;;;;103950;1286;548521;-70
2024/03/24 12:27:56;;;;;;;5.30;2.20;;;;;;;;;;103397;1294;545640;-71
2024/03/24 12:31:31;;;;;;;4.20;1.70;;;;;;;;;;103712;1293;545082;-70
2024/03/24 12:35:10;;;;;;;5.00;2.00;;;;;;;;;;103787;1290;545416;-73
2024/03/24 12:38:43;;;;;;;6.00;2.30;;;;;;;;;;103662;1289;544714;-71
2024/03/24 12:42:26;;;;;;;6.00;2.30;;;;;;;;;;103894;1289;545210;-68
2024/03/24 12:46:03;;;;;;;5.80;2.30;;;;;;;;;;103678;1291;545420;-71
2024/03/24 12:49:38;;;;;;;4.80;1.90;;;;;;;;;;103786;1295;545056;-71
2024/03/24 12:53:39;;;;;;;6.40;2.60;;;;;;;;;;103760;1290;545252;-69
2024/03/24 12:56:54;;;;;;;6.10;2.40;;;;;;;;;;104617;1283;545040;-71
2024/03/24 13:00:33;;;;;;;5.30;2.00;;;;;;;;;;103670;1293;545711;-72
2024/03/24 13:04:11;;;;;;;8.20;3.60;;;;;;;;;;103737;1295;545534;-70
2024/03/24 13:07:47;;;;;;;7.10;3.10;;;;;;;;;;103756;1292;545064;-72
2024/03/24 13:11:23;;;;;;;6.50;2.30;;;;;;;;;;103650;1288;544746;-72
2024/03/24 13:15:00;;;;;;;6.70;3.20;;;;;;;;;;103783;1290;545677;-71
2024/03/24 13:18:38;;;;;;;10.90;4.80;;;;;;;;;;103687;1289;544890;-72
2024/03/24 13:22:16;;;;;;;6.50;3.00;;;;;;;;;;103797;1290;545389;-72
2024/03/24 13:25:56;;;;;;;7.40;3.20;;;;;;;;;;103982;1288;545031;-73
2024/03/24 13:29:42;;;;;;;11.10;5.60;;;;;;;;;;103577;1291;546603;-75
2024/03/24 13:33:08;;;;;;;7.10;3.20;;;;;;;;;;103592;1298;545000;-71
2024/03/24 13:36:58;;;;;;;6.00;2.50;;;;;;;;;;103660;1292;544792;-72
2024/03/24 13:40:23;;;;;;;6.30;2.80;;;;;;;;;;103664;1292;545830;-72
2024/03/24 13:44:39;;;;;;;8.20;3.90;;;;;;;;;;103706;1290;548019;-73
2024/03/24 13:47:38;;;;;;;7.40;3.10;;;;;;;;;;103834;1291;545028;-70
2024/03/24 13:51:17;;;;;;;12.30;5.40;;;;;;;;;;103741;1291;544996;-71
2024/03/24 13:54:49;;;;;;;10.50;4.80;;;;;;;;;;104375;1286;545572;-71
2024/03/24 13:58:30;;;;;;;12.90;6.50;;;;;;;;;;103765;1294;544866;-72
2024/03/24 14:02:11;;;;;;;11.20;5.20;;;;;;;;;;103531;1292;546434;-71
2024/03/24 14:05:49;;;;;;;9.60;4.40;;;;;;;;;;104027;1288;544759;-72
2024/03/24 14:09:24;;;;;;;9.70;4.20;;;;;;;;;;103701;1291;544738;-72
2024/03/24 14:13:12;;;;;;;8.30;3.70;;;;;;;;;;103604;1292;544962;-71
2024/03/24 14:16:37;;;;;;;8.50;3.80;;;;;;;;;;103671;1291;544839;-72
2024/03/24 14:20:25;;;;;;;8.80;2.90;;;;;;;;;;103767;1290;544832;-69
2024/03/24 14:23:56;;;;;;;7.50;2.80;;;;;;;;;;103703;1292;544977;-71
2024/03/24 14:27:31;;;;;;;6.20;2.60;;;;;;;;;;103702;1295;546575;-70
2024/03/24 14:31:28;;;;;;;5.50;2.40;;;;;;;;;;103816;1289;545051;-70
2024/03/24 14:34:45;;;;;;;5.90;2.30;;;;;;;;;;103499;1292;545971;-70
2024/03/24 14:38:44;;;;;;;9.40;3.70;;;;;;;;;;103845;1290;544927;-70
2024/03/24 14:42:07;;;;;;;9.60;4.10;;;;;;;;;;103886;1288;545388;-73
2024/03/24 14:45:47;;;;;;;9.20;4.00;;;;;;;;;;103706;1288;545593;-72
2024/03/24 14:49:15;;;;;;;6.30;2.60;;;;;;;;;;103684;1293;544925;-70
2024/03/24 14:52:52;;;;;;;5.80;2.00;;;;;;;;;;104281;1291;544838;-72
2024/03/24 14:56:34;;;;;;;7.60;3.40;;;;;;;;;;103635;1292;544984;-73
2024/03/24 15:00:13;;;;;;;8.50;3.10;;;;;;;;;;103783;1292;546069;-73
2024/03/24 15:03:45;;;;;;;7.60;3.10;;;;;;;;;;103801;1298;546231;-72
2024/03/24 15:07:22;;;;;;;6.30;2.50;;;;;;;;;;103666;1292;545730;-71
2024/03/24 15:11:13;;;;;;;;;;;;;;;;;;;;;
2024/03/24 15:14:37;;;;;;;6.50;2.50;;;;;;;;;;103926;1289;544983;-70
2024/03/24 15:18:15;;;;;;;7.00;2.90;;;;;;;;;;103691;1295;544714;-73
2024/03/24 15:21:52;;;;;;;29.40;15.50;;;;;;;;;;103717;1290;544891;-72
2024/03/24 15:25:30;;;;;;;10.30;3.70;;;;;;;;;;103756;1292;545008;-74
2024/03/24 15:29:08;;;;;;;12.40;5.20;;;;;;;;;;103769;1291;545084;-72
2024/03/24 15:32:45;;;;;;;9.10;4.20;;;;;;;;;;103782;1289;544993;-71
2024/03/24 15:36:22;;;;;;;9.60;5.40;;;;;;;;;;104014;1289;545740;-72
2024/03/24 15:39:59;;;;;;;10.80;5.80;;;;;;;;;;103679;1295;544789;-73
2024/03/24 15:43:37;;;;;;;7.30;3.20;;;;;;;;;;103632;1289;545548;-70
2024/03/24 15:47:11;;;;;;;9.80;4.60;;;;;;;;;;104055;1290;545535;-72
2024/03/24 15:50:54;;;;;;;9.40;4.40;;;;;;;;;;104075;1292;544857;-73
2024/03/24 15:54:37;;;;;;;11.10;5.30;;;;;;;;;;103789;1289;545383;-72
2024/03/24 15:58:24;;;;;;;12.90;5.60;;;;;;;;;;103733;1292;545123;-74
2024/03/24 16:02:21;;;;;;;18.40;9.40;;;;;;;;;;103898;1289;545199;-71
2024/03/24 16:05:22;;;;;;;16.20;7.60;;;;;;;;;;103795;1289;544793;-73
2024/03/24 16:09:03;;;;;;;6.80;2.50;;;;;;;;;;103956;1296;544986;-72
2024/03/24 16:12:46;;;;;;;5.20;2.10;;;;;;;;;;103808;1289;545845;-75
2024/03/24 16:16:20;;;;;;;10.40;5.00;;;;;;;;;;103692;1289;548018;-71
2024/03/24 16:19:57;;;;;;;14.00;8.10;;;;;;;;;;103828;1289;545045;-75
2024/03/24 16:23:31;;;;;;;10.00;5.70;;;;;;;;;;103837;1292;545821;-73
2024/03/24 16:27:07;;;;;;;5.80;2.40;;;;;;;;;;103782;1289;544981;-73
2024/03/24 16:30:44;;;;;;;7.00;3.80;;;;;;;;;;103795;1292;545004;-73
2024/03/24 16:34:28;;;;;;;6.40;1.60;;;;;;;;;;103695;1288;549475;-72
2024/03/24 16:37:59;;;;;;;5.60;2.10;;;;;;;;;;103727;1295;544914;-72
2024/03/24 16:41:33;;;;;;;7.00;1.90;;;;;;;;;;103752;1292;545043;-73
2024/03/24 16:45:15;;;;;;;5.70;2.50;;;;;;;;;;103854;1289;544825;-73
2024/03/24 16:48:52;;;;;;;7.10;3.70;;;;;;;;;;103821;1289;545036;-72
2024/03/24 16:52:30;;;;;;;9.00;5.60;;;;;;;;;;104119;1285;544633;-71
2024/03/24 16:56:13;;;;;;;13.80;6.90;;;;;;;;;;103576;1293;548156;-73
2024/03/24 16:59:44;;;;;;;23.10;9.30;;;;;;;;;;103820;1289;546403;-72
2024/03/24 17:03:22;;;;;;;24.20;10.10;;;;;;;;;;103757;1291;545601;-71
2024/03/24 17:06:59;;;;;;;22.30;9.20;;;;;;;;;;103816;1292;544896;-72
2024/03/24 17:10:40;;;;;;;13.50;5.80;;;;;;;;;;103473;1292;545415;-72
2024/03/24 17:14:14;;;;;;;8.00;3.30;;;;;;;;;;104077;1283;545991;-70
2024/03/24 17:17:53;;;;;;;6.60;2.90;;;;;;;;;;103490;1292;545505;-72
2024/03/24 17:21:30;;;;;;;7.90;3.90;;;;;;;;;;103733;1291;545621;-70
2024/03/24 17:25:10;;;;;;;8.10;3.80;;;;;;;;;;103697;1292;546351;-73
2024/03/24 17:28:45;;;;;;;8.90;3.70;;;;;;;;;;103888;1300;544720;-71
2024/03/24 17:32:25;;;;;;;8.80;4.10;;;;;;;;;;103832;1289;545491;-71
2024/03/24 17:36:10;;;;;;;11.20;5.20;;;;;;;;;;103795;1292;547903;-75
2024/03/24 17:39:37;;;;;;;10.50;5.10;;;;;;;;;;103793;1291;544814;-71
2024/03/24 17:43:15;;;;;;;9.60;5.20;;;;;;;;;;103803;1290;545531;-72
2024/03/24 17:47:02;;;;;;;;;;;;;;;;;;;;;
2024/03/24 17:50:30;;;;;;;13.60;6.70;;;;;;;;;;103861;1289;544872;-71
2024/03/24 17:54:07;;;;;;;12.60;6.30;;;;;;;;;;103774;1290;545426;-71
2024/03/24 17:57:40;;;;;;;10.90;5.30;;;;;;;;;;103735;1289;545156;-70
2024/03/24 18:01:21;;;;;;;11.40;5.30;;;;;;;;;;103717;1295;545466;-71
2024/03/24 18:04:59;;;;;;;15.10;7.00;;;;;;;;;;103736;1291;545167;-70
2024/03/24 18:12:14;;;;;;;11.60;5.60;;;;;;;;;;103836;1289;545040;-71
2024/03/24 18:15:54;;;;;;;8.80;4.50;;;;;;;;;;103481;1291;545735;-71
2024/03/24 18:19:29;;;;;;;9.50;4.80;;;;;;;;;;103813;1289;544991;-72
2024/03/24 18:23:07;;;;;;;9.40;5.10;;;;;;;;;;103726;1295;545982;-72
2024/03/24 18:26:44;;;;;;;9.70;5.10;;;;;;;;;;103722;1292;545699;-70
2024/03/24 18:30:22;;;;;;;11.10;5.00;;;;;;;;;;103913;1292;545410;-72
2024/03/24 18:33:58;;;;;;;9.20;4.90;;;;;;;;;;103552;1297;544893;-72
2024/03/24 18:37:45;;;;;;;9.80;5.20;;;;;;;;;;103625;1289;546530;-71
2024/03/24 18:41:16;;;;;;;11.20;5.10;;;;;;;;;;103802;1291;545793;-72
2024/03/24 18:44:55;;;;;;;10.50;5.50;;;;;;;;;;103797;1291;544993;-72
2024/03/24 18:48:32;;;;;;;12.00;6.00;;;;;;;;;;103716;1295;545071;-72
2024/03/24 18:52:07;;;;;;;11.70;6.30;;;;;;;;;;103532;1307;544830;-69
2024/03/24 18:55:44;;;;;;;10.00;5.20;;;;;;;;;;104621;1283;545361;-70
2024/03/24 18:59:21;;;;;;;10.50;5.40;;;;;;;;;;103761;1291;544871;-72
2024/03/24 19:03:02;;;;;;;9.50;4.90;;;;;;;;;;103658;1292;544780;-73
2024/03/24 19:06:36;;;;;;;12.70;5.50;;;;;;;;;;103994;1295;544924;-71
2024/03/24 19:10:13;;;;;;;16.00;7.20;;;;;;;;;;103662;1295;545601;-72
2024/03/24 19:13:47;;;;;;;16.40;8.00;;;;;;;;;;103758;1295;545415;-70
2024/03/24 19:17:35;;;;;;;16.10;7.70;;;;;;;;;;104273;1282;545663;-71
2024/03/24 19:21:07;;;;;;;19.30;8.40;;;;;;;;;;103751;1289;545784;-71
2024/03/24 19:24:43;;;;;;;18.20;8.60;;;;;;;;;;103898;1288;545307;-70
2024/03/24 19:28:27;;;;;;;15.60;8.80;;;;;;;;;;103745;1289;548070;-72
2024/03/24 19:31:58;;;;;;;17.60;9.00;;;;;;;;;;103747;1292;544795;-71
2024/03/24 19:35:36;;;;;;;17.10;9.70;;;;;;;;;;104085;1292;545202;-72
2024/03/24 19:39:14;;;;;;;14.70;9.10;;;;;;;;;;103680;1293;545916;-71
2024/03/24 19:42:51;;;;;;;15.40;8.60;;;;;;;;;;103677;1290;545956;-71
2024/03/24 19:46:31;;;;;;;12.60;7.40;;;;;;;;;;103833;1290;545417;-70
2024/03/24 19:50:07;;;;;;;16.10;8.30;;;;;;;;;;103832;1289;545840;-70
2024/03/24 19:53:42;;;;;;;13.70;7.50;;;;;;;;;;103880;1292;545723;-71
2024/03/24 19:57:17;;;;;;;15.40;7.80;;;;;;;;;;103905;1292;544974;-71
2024/03/24 20:01:00;;;;;;;16.10;8.20;;;;;;;;;;103944;1288;545089;-71
2024/03/24 20:04:36;;;;;;;17.50;8.80;;;;;;;;;;103718;1292;545677;-71
2024/03/24 20:08:13;;;;;;;21.10;9.70;;;;;;;;;;103715;1291;545053;-71
2024/03/24 20:11:51;;;;;;;19.80;11.00;;;;;;;;;;103834;1291;545730;-71
2024/03/24 20:15:29;;;;;;;23.30;12.10;;;;;;;;;;104234;1288;545523;-72
2024/03/24 20:19:06;;;;;;;21.80;11.90;;;;;;;;;;103819;1292;546074;-72
2024/03/24 20:22:39;;;;;;;21.10;11.50;;;;;;;;;;104443;1283;545866;-73
2024/03/24 20:26:21;;;;;;;16.20;8.90;;;;;;;;;;103988;1289;544757;-71
2024/03/24 20:29:58;;;;;;;14.20;8.20;;;;;;;;;;103694;1291;544832;-71
2024/03/24 20:33:36;;;;;;;13.80;8.40;;;;;;;;;;103874;1293;545421;-72
2024/03/24 20:37:13;;;;;;;12.10;7.40;;;;;;;;;;103713;1293;545741;-72
2024/03/24 20:40:54;;;;;;;11.80;7.70;;;;;;;;;;103578;1292;544980;-71
2024/03/24 20:44:28;;;;;;;11.70;7.30;;;;;;;;;;104160;1287;544979;-71
2024/03/24 20:48:06;;;;;;;12.10;8.20;;;;;;;;;;103698;1291;545593;-73
2024/03/24 20:51:43;;;;;;;37.60;19.90;;;;;;;;;;103770;1289;545796;-72
2024/03/24 20:55:24;;;;;;;18.00;9.20;;;;;;;;;;103557;1292;544921;-72
2024/03/24 20:59:00;;;;;;;12.10;6.50;;;;;;;;;;103801;1289;545952;-72
2024/03/24 21:02:36;;;;;;;10.30;5.90;;;;;;;;;;103615;1295;545449;-70
2024/03/24 21:06:12;;;;;;;10.60;5.80;;;;;;;;;;104079;1289;545010;-72